createdAt,value
2022-09-01T00:00:18.979Z,231.20
2022-09-01T00:10:25.635Z,229.27
2022-09-01T00:20:31.095Z,230.97
2022-09-01T00:30:36.848Z,232.30
2022-09-01T00:40:40.721Z,226.70
2022-09-01T00:50:50.802Z,245.50
2022-09-01T01:00:59.743Z,226.80
2022-09-01T01:11:09.436Z,228.30
2022-09-01T01:21:37.424Z,228.27
2022-09-01T01:31:43.076Z,230.23
2022-09-01T01:41:49.078Z,227.67
2022-09-01T01:51:58.029Z,230.63
2022-09-01T02:02:10.503Z,231.90
2022-09-01T02:12:19.314Z,232.43
2022-09-01T02:22:23.217Z,227.37
2022-09-01T02:32:28.577Z,226.13
2022-09-01T02:42:33.297Z,229.40
2022-09-01T02:52:40.618Z,225.97
2022-09-01T03:02:45.731Z,231.77
2022-09-01T03:12:51.234Z,227.67
2022-09-01T03:22:57.289Z,226.20
2022-09-01T03:33:04.247Z,228.67
2022-09-01T03:43:14.015Z,229.47
2022-09-01T03:53:25.501Z,230.57
2022-09-01T04:03:32.505Z,229.20
2022-09-01T04:13:42.359Z,224.47
2022-09-01T04:23:46.635Z,224.10
2022-09-01T04:33:54.255Z,224.03
2022-09-01T04:44:00.423Z,226.83
2022-09-01T04:54:12.944Z,225.40
2022-09-01T05:04:19.692Z,228.23
2022-09-01T05:14:26.422Z,230.07
2022-09-01T05:24:32.297Z,230.77
2022-09-01T05:34:43.992Z,219.33
2022-09-01T05:44:49.040Z,225.70
2022-09-01T05:55:00.384Z,229.20
2022-09-01T06:05:07.020Z,228.63
2022-09-01T06:15:16.379Z,234.70
2022-09-01T06:25:26.595Z,246.23
2022-09-01T06:35:32.606Z,231.67
2022-09-01T06:45:42.414Z,232.43
2022-09-01T06:55:50.892Z,243.17
2022-09-01T07:06:04.170Z,231.53
2022-09-01T07:16:51.822Z,234.40
2022-09-01T07:27:07.569Z,233.03
2022-09-01T07:38:02.973Z,234.75
2022-09-01T07:47:55.882Z,237.45
2022-09-01T07:58:01.693Z,241.20
2022-09-01T08:08:18.581Z,239.85
2022-09-01T08:18:24.929Z,254.68
2022-09-01T08:28:29.056Z,235.48
2022-09-01T08:38:34.896Z,259.92
2022-09-01T08:49:24.279Z,244.45
2022-09-01T08:59:15.029Z,240.30
2022-09-01T09:09:53.843Z,228.82
2022-09-01T09:19:59.402Z,230.68
2022-09-01T09:30:09.331Z,219.45
2022-09-01T09:40:17.465Z,210.95
2022-09-01T09:50:27.434Z,209.85
2022-09-01T10:00:35.138Z,210.82
2022-09-01T10:10:42.934Z,211.68
2022-09-01T10:20:56.133Z,231.85
2022-09-01T10:31:00.292Z,247.10
2022-09-01T10:41:15.921Z,237.45
2022-09-01T10:51:56.379Z,250.90
2022-09-01T11:02:26.866Z,228.93
2022-09-01T11:12:53.472Z,226.18
2022-09-01T11:23:08.960Z,224.50
2022-09-01T11:34:01.038Z,231.88
2022-09-01T11:44:16.789Z,231.43
2022-09-01T11:54:20.372Z,233.38
2022-09-01T12:04:31.985Z,237.10
2022-09-01T12:15:02.089Z,229.73
2022-09-01T12:25:00.920Z,226.80
2022-09-01T12:35:11.349Z,233.70
2022-09-01T12:45:44.045Z,214.77
2022-09-01T12:56:18.300Z,203.82
2022-09-01T13:06:23.360Z,222.88
2022-09-01T13:16:26.955Z,229.40
2022-09-01T13:26:32.021Z,241.52
2022-09-01T13:36:45.126Z,241.85
2022-09-01T13:57:16.725Z,237.32
2022-09-01T14:07:22.223Z,243.95
2022-09-01T14:17:26.502Z,248.07
2022-09-01T14:27:31.662Z,251.50
2022-09-01T14:37:36.196Z,235.80
2022-09-01T14:47:41.353Z,233.67
2022-09-01T14:57:45.257Z,242.67
2022-09-01T15:07:51.293Z,236.40
2022-09-01T15:17:55.531Z,239.10
2022-09-01T15:28:01.497Z,241.53
2022-09-01T15:38:07.211Z,244.37
2022-09-01T15:48:12.570Z,250.37
2022-09-01T15:58:19.621Z,244.60
2022-09-01T16:08:25.279Z,235.70
2022-09-01T16:18:35.342Z,240.83
2022-09-01T16:28:44.232Z,272.17
2022-09-01T16:38:52.349Z,259.20
2022-09-01T16:49:14.797Z,243.60
2022-09-01T16:59:33.459Z,244.77
2022-09-01T17:09:42.637Z,246.20
2022-09-01T17:19:52.206Z,241.90
2022-09-01T17:29:58.612Z,239.23
2022-09-01T17:40:13.661Z,235.30
2022-09-01T17:50:28.577Z,239.33
2022-09-01T18:00:41.075Z,240.37
2022-09-01T18:10:52.541Z,236.90
2022-09-01T18:21:04.256Z,238.27
2022-09-01T18:31:37.794Z,238.60
2022-09-01T18:41:56.376Z,230.93
2022-09-01T18:52:18.606Z,239.70
2022-09-01T19:02:39.719Z,231.73
2022-09-01T19:12:56.699Z,236.17
2022-09-01T19:23:07.369Z,248.50
2022-09-01T19:33:17.084Z,241.30
2022-09-01T19:43:21.971Z,231.37
2022-09-01T19:53:42.695Z,223.50
2022-09-01T20:03:50.905Z,225.37
2022-09-01T20:14:15.482Z,230.10
2022-09-01T20:24:33.608Z,229.63
2022-09-01T20:34:47.854Z,233.77
2022-09-01T20:44:59.054Z,228.90
2022-09-01T20:55:12.443Z,228.80
2022-09-01T21:05:41.332Z,227.80
2022-09-01T21:15:54.784Z,230.40
2022-09-01T21:26:00.118Z,227.27
2022-09-01T21:36:05.938Z,228.83
2022-09-01T21:46:10.990Z,225.33
2022-09-01T21:56:16.357Z,227.30
2022-09-01T22:06:23.188Z,223.17
2022-09-01T22:16:29.273Z,228.90
2022-09-01T22:26:39.594Z,224.10
2022-09-01T22:36:47.873Z,223.93
2022-09-01T22:46:52.285Z,222.97
2022-09-01T22:56:58.648Z,229.50
2022-09-01T23:07:03.412Z,233.70
2022-09-01T23:17:08.934Z,228.17
2022-09-01T23:27:12.804Z,224.53
2022-09-01T23:37:18.213Z,230.97
2022-09-01T23:47:22.026Z,230.27
2022-09-01T23:57:27.291Z,229.33
